sensor_id;sensor_type;location;lat;lon;timestamp;pressure;altitude;pressure_sealevel;temperature;humidity
12759;BME280;20944;47.048;15.390;2023-08-01T00:01:39;96873.22;;;20.77;100.00
12759;BME280;20944;47.048;15.390;2023-08-01T00:04:07;96880.88;;;20.70;100.00
12759;BME280;20944;47.048;15.390;2023-08-01T00:06:36;96866.84;;;20.57;100.00
12759;BME280;20944;47.048;15.390;2023-08-01T00:09:04;96879.31;;;20.68;100.00
12759;BME280;20944;47.048;15.390;2023-08-01T00:11:33;96878.91;;;20.61;100.00
12759;BME280;20944;47.048;15.390;2023-08-01T00:14:02;96868.28;;;20.61;100.00
12759;BME280;20944;47.048;15.390;2023-08-01T00:16:31;96803.72;;;20.26;100.00
12759;BME280;20944;47.048;15.390;2023-08-01T00:19:00;96846.53;;;20.45;100.00
12759;BME280;20944;47.048;15.390;2023-08-01T00:21:28;96860.31;;;20.50;100.00
12759;BME280;20944;47.048;15.390;2023-08-01T00:23:58;96863.44;;;20.44;100.00
12759;BME280;20944;47.048;15.390;2023-08-01T00:26:26;96838.44;;;20.24;100.00
12759;BME280;20944;47.048;15.390;2023-08-01T00:28:55;96862.34;;;20.35;100.00
12759;BME280;20944;47.048;15.390;2023-08-01T00:31:24;96859.09;;;20.32;100.00
12759;BME280;20944;47.048;15.390;2023-08-01T00:33:53;96847.97;;;20.27;100.00
12759;BME280;20944;47.048;15.390;2023-08-01T00:36:21;96853.91;;;20.30;100.00
12759;BME280;20944;47.048;15.390;2023-08-01T00:38:49;96862.34;;;20.35;100.00
12759;BME280;20944;47.048;15.390;2023-08-01T00:41:18;96853.66;;;20.33;100.00
12759;BME280;20944;47.048;15.390;2023-08-01T00:43:46;96847.84;;;20.28;100.00
12759;BME280;20944;47.048;15.390;2023-08-01T00:46:14;96848.69;;;20.29;100.00
12759;BME280;20944;47.048;15.390;2023-08-01T00:48:44;96846.63;;;20.21;100.00
12759;BME280;20944;47.048;15.390;2023-08-01T00:51:13;96816.66;;;20.08;100.00
12759;BME280;20944;47.048;15.390;2023-08-01T00:53:41;96837.09;;;20.18;100.00
12759;BME280;20944;47.048;15.390;2023-08-01T00:56:10;96806.13;;;19.95;100.00
12759;BME280;20944;47.048;15.390;2023-08-01T00:58:38;96829.47;;;20.14;100.00
12759;BME280;20944;47.048;15.390;2023-08-01T01:01:06;96820.28;;;20.07;100.00
12759;BME280;20944;47.048;15.390;2023-08-01T01:03:36;96829.47;;;20.14;100.00
12759;BME280;20944;47.048;15.390;2023-08-01T01:06:12;96816.75;;;20.17;100.00
12759;BME280;20944;47.048;15.390;2023-08-01T01:08:44;96762.13;;;19.80;100.00
12759;BME280;20944;47.048;15.390;2023-08-01T01:11:12;96806.13;;;19.95;100.00
12759;BME280;20944;47.048;15.390;2023-08-01T01:13:40;96800.34;;;19.90;100.00
12759;BME280;20944;47.048;15.390;2023-08-01T01:16:09;96791.16;;;19.83;100.00
12759;BME280;20944;47.048;15.390;2023-08-01T01:18:37;96739.13;;;19.45;100.00
12759;BME280;20944;47.048;15.390;2023-08-01T01:21:25;96792.97;;;19.93;100.00
12759;BME280;20944;47.048;15.390;2023-08-01T01:24:26;96769.75;;;19.73;100.00
12759;BME280;20944;47.048;15.390;2023-08-01T01:26:56;96769.22;;;19.57;100.00
12759;BME280;20944;47.048;15.390;2023-08-01T01:29:27;96778.66;;;19.61;100.00
12759;BME280;20944;47.048;15.390;2023-08-01T01:31:55;96730.66;;;19.29;100.00
12759;BME280;20944;47.048;15.390;2023-08-01T01:34:24;96760.88;;;19.50;100.00
12759;BME280;20944;47.048;15.390;2023-08-01T01:36:54;96767.56;;;19.67;100.00
12759;BME280;20944;47.048;15.390;2023-08-01T01:39:22;96726.44;;;19.37;100.00
12759;BME280;20944;47.048;15.390;2023-08-01T01:41:50;96743.47;;;19.35;100.00
12759;BME280;20944;47.048;15.390;2023-08-01T01:44:18;96752.78;;;19.40;100.00
12759;BME280;20944;47.048;15.390;2023-08-01T01:46:47;96672.66;;;18.89;100.00
12759;BME280;20944;47.048;15.390;2023-08-01T01:49:16;96699.06;;;18.91;100.00
12759;BME280;20944;47.048;15.390;2023-08-01T01:51:45;96778.50;;;19.40;100.00
12759;BME280;20944;47.048;15.390;2023-08-01T01:54:14;96746.25;;;19.33;100.00
12759;BME280;20944;47.048;15.390;2023-08-01T01:56:42;96756.91;;;19.45;100.00
12759;BME280;20944;47.048;15.390;2023-08-01T01:59:11;96756.16;;;19.54;100.00
12759;BME280;20944;47.048;15.390;2023-08-01T02:01:39;96752.78;;;19.52;100.00
12759;BME280;20944;47.048;15.390;2023-08-01T02:04:07;96751.38;;;19.59;100.00
12759;BME280;20944;47.048;15.390;2023-08-01T02:06:35;96748.72;;;19.59;100.00
12759;BME280;20944;47.048;15.390;2023-08-01T02:09:04;96747.47;;;19.40;100.00
12759;BME280;20944;47.048;15.390;2023-08-01T02:11:34;96745.41;;;19.33;100.00
12759;BME280;20944;47.048;15.390;2023-08-01T02:14:02;96747.69;;;19.26;100.00
12759;BME280;20944;47.048;15.390;2023-08-01T02:16:30;96751.91;;;19.29;100.00
12759;BME280;20944;47.048;15.390;2023-08-01T02:18:59;96736.09;;;19.27;100.00
12759;BME280;20944;47.048;15.390;2023-08-01T02:21:27;96717.25;;;19.19;100.00
12759;BME280;20944;47.048;15.390;2023-08-01T02:23:55;96750.13;;;19.40;100.00
12759;BME280;20944;47.048;15.390;2023-08-01T02:26:23;96742.63;;;19.34;100.00
12759;BME280;20944;47.048;15.390;2023-08-01T02:28:53;96721.94;;;19.16;100.00
12759;BME280;20944;47.048;15.390;2023-08-01T02:31:21;96734.28;;;19.28;100.00
12759;BME280;20944;47.048;15.390;2023-08-01T02:33:49;96687.63;;;19.01;100.00
12759;BME280;20944;47.048;15.390;2023-08-01T02:36:18;96719.41;;;19.14;100.00
12759;BME280;20944;47.048;15.390;2023-08-01T02:38:46;96705.50;;;18.99;100.00
12759;BME280;20944;47.048;15.390;2023-08-01T02:41:14;96712.72;;;18.97;100.00
12759;BME280;20944;47.048;15.390;2023-08-01T02:43:42;96657.72;;;18.64;100.00
12759;BME280;20944;47.048;15.390;2023-08-01T02:46:12;96720.09;;;18.94;100.00
12759;BME280;20944;47.048;15.390;2023-08-01T02:48:40;96697.88;;;18.95;100.00
12759;BME280;20944;47.048;15.390;2023-08-01T02:51:09;96722.88;;;19.03;100.00
12759;BME280;20944;47.048;15.390;2023-08-01T02:53:37;96702.47;;;19.04;100.00
12759;BME280;20944;47.048;15.390;2023-08-01T02:56:07;96717.09;;;19.09;100.00
12759;BME280;20944;47.048;15.390;2023-08-01T02:58:37;96714.94;;;19.14;100.00
12759;BME280;20944;47.048;15.390;2023-08-01T03:01:06;96707.94;;;19.13;100.00
12759;BME280;20944;47.048;15.390;2023-08-01T03:03:38;96702.75;;;19.12;100.00
12759;BME280;20944;47.048;15.390;2023-08-01T03:06:06;96670.72;;;18.91;100.00
12759;BME280;20944;47.048;15.390;2023-08-01T03:08:34;96694.16;;;19.08;100.00
12759;BME280;20944;47.048;15.390;2023-08-01T03:11:02;96687.78;;;19.11;100.00
12759;BME280;20944;47.048;15.390;2023-08-01T03:13:31;96673.53;;;19.12;100.00
12759;BME280;20944;47.048;15.390;2023-08-01T03:15:59;96682.59;;;19.21;100.00
12759;BME280;20944;47.048;15.390;2023-08-01T03:18:27;96682.09;;;19.16;100.00
12759;BME280;20944;47.048;15.390;2023-08-01T03:20:57;96680.84;;;18.97;100.00
12759;BME280;20944;47.048;15.390;2023-08-01T03:23:25;96605.34;;;18.55;100.00
12759;BME280;20944;47.048;15.390;2023-08-01T03:25:54;96674.97;;;18.94;100.00
12759;BME280;20944;47.048;15.390;2023-08-01T03:28:22;96673.75;;;18.98;100.00
12759;BME280;20944;47.048;15.390;2023-08-01T03:30:50;96679.31;;;19.06;100.00
12759;BME280;20944;47.048;15.390;2023-08-01T03:33:20;96679.19;;;19.07;100.00
12759;BME280;20944;47.048;15.390;2023-08-01T03:35:48;96692.91;;;18.90;100.00
12759;BME280;20944;47.048;15.390;2023-08-01T03:38:18;96663.72;;;18.55;100.00
12759;BME280;20944;47.048;15.390;2023-08-01T03:40:46;96692.63;;;18.71;100.00
12759;BME280;20944;47.048;15.390;2023-08-01T03:43:14;96684.38;;;18.63;100.00
12759;BME280;20944;47.048;15.390;2023-08-01T03:45:42;96691.44;;;18.75;100.00
12759;BME280;20944;47.048;15.390;2023-08-01T03:48:11;96675.00;;;18.70;100.00
12759;BME280;20944;47.048;15.390;2023-08-01T03:50:39;96673.00;;;18.73;100.00
12759;BME280;20944;47.048;15.390;2023-08-01T03:53:07;96644.56;;;18.63;100.00
12759;BME280;20944;47.048;15.390;2023-08-01T03:55:37;96688.72;;;18.99;100.00
12759;BME280;20944;47.048;15.390;2023-08-01T03:58:05;96679.44;;;18.93;100.00
12759;BME280;20944;47.048;15.390;2023-08-01T04:00:33;96679.66;;;19.01;100.00
12759;BME280;20944;47.048;15.390;2023-08-01T04:03:02;96668.34;;;18.99;100.00
12759;BME280;20944;47.048;15.390;2023-08-01T04:05:30;96670.50;;;19.05;100.00
12759;BME280;20944;47.048;15.390;2023-08-01T04:07:59;96675.47;;;19.21;100.00
12759;BME280;20944;47.048;15.390;2023-08-01T04:10:27;96657.97;;;19.19;100.00
12759;BME280;20944;47.048;15.390;2023-08-01T04:12:57;96631.63;;;18.93;100.00
12759;BME280;20944;47.048;15.390;2023-08-01T04:15:25;96652.03;;;19.04;100.00
12759;BME280;20944;47.048;15.390;2023-08-01T04:17:53;96673.66;;;19.22;100.00
12759;BME280;20944;47.048;15.390;2023-08-01T04:20:21;96669.31;;;19.32;100.00
12759;BME280;20944;47.048;15.390;2023-08-01T04:22:50;96611.63;;;19.11;100.00
12759;BME280;20944;47.048;15.390;2023-08-01T04:25:18;96662.44;;;19.52;100.00
12759;BME280;20944;47.048;15.390;2023-08-01T04:27:46;96648.44;;;19.61;100.00
12759;BME280;20944;47.048;15.390;2023-08-01T04:30:16;96658.19;;;19.83;100.00
12759;BME280;20944;47.048;15.390;2023-08-01T04:32:44;96659.94;;;20.05;100.00
12759;BME280;20944;47.048;15.390;2023-08-01T04:35:13;96664.88;;;20.20;100.00
12759;BME280;20944;47.048;15.390;2023-08-01T04:37:41;96639.03;;;20.11;100.00
12759;BME280;20944;47.048;15.390;2023-08-01T04:40:10;96665.88;;;20.52;100.00
12759;BME280;20944;47.048;15.390;2023-08-01T04:42:38;96612.72;;;20.29;100.00
12759;BME280;20944;47.048;15.390;2023-08-01T04:45:07;96670.84;;;20.77;100.00
12759;BME280;20944;47.048;15.390;2023-08-01T04:47:37;96661.94;;;20.88;100.00
12759;BME280;20944;47.048;15.390;2023-08-01T04:50:06;96618.69;;;20.74;100.00
12759;BME280;20944;47.048;15.390;2023-08-01T04:52:35;96656.44;;;21.00;100.00
12759;BME280;20944;47.048;15.390;2023-08-01T04:55:03;96652.63;;;21.03;100.00
12759;BME280;20944;47.048;15.390;2023-08-01T04:57:32;96632.56;;;20.99;100.00
12759;BME280;20944;47.048;15.390;2023-08-01T05:00:00;96645.41;;;21.15;100.00
12759;BME280;20944;47.048;15.390;2023-08-01T05:02:28;96662.75;;;21.30;100.00
12759;BME280;20944;47.048;15.390;2023-08-01T05:04:58;96666.19;;;21.42;100.00
12759;BME280;20944;47.048;15.390;2023-08-01T05:07:26;96663.28;;;21.45;100.00
12759;BME280;20944;47.048;15.390;2023-08-01T05:09:54;96665.09;;;21.44;100.00
12759;BME280;20944;47.048;15.390;2023-08-01T05:12:23;96600.59;;;20.99;100.00
12759;BME280;20944;47.048;15.390;2023-08-01T05:14:51;96660.94;;;21.31;100.00
12759;BME280;20944;47.048;15.390;2023-08-01T05:17:19;96647.63;;;21.10;100.00
12759;BME280;20944;47.048;15.390;2023-08-01T05:19:47;96663.53;;;21.21;100.00
12759;BME280;20944;47.048;15.390;2023-08-01T05:22:17;96656.78;;;21.17;100.00
12759;BME280;20944;47.048;15.390;2023-08-01T05:24:45;96659.06;;;21.21;100.00
12759;BME280;20944;47.048;15.390;2023-08-01T05:27:14;96647.41;;;21.22;100.00
12759;BME280;20944;47.048;15.390;2023-08-01T05:29:42;96632.69;;;21.18;100.00
12759;BME280;20944;47.048;15.390;2023-08-01T05:32:10;96646.53;;;21.33;100.00
12759;BME280;20944;47.048;15.390;2023-08-01T05:34:39;96654.16;;;21.47;100.00
12759;BME280;20944;47.048;15.390;2023-08-01T05:37:07;96637.63;;;21.53;100.00
12759;BME280;20944;47.048;15.390;2023-08-01T05:39:37;96647.59;;;21.61;100.00
12759;BME280;20944;47.048;15.390;2023-08-01T05:42:06;96644.53;;;21.66;100.00
12759;BME280;20944;47.048;15.390;2023-08-01T05:44:35;96645.44;;;21.76;100.00
12759;BME280;20944;47.048;15.390;2023-08-01T05:47:04;96617.63;;;21.69;100.00
12759;BME280;20944;47.048;15.390;2023-08-01T05:49:32;96638.81;;;21.80;100.00
12759;BME280;20944;47.048;15.390;2023-08-01T05:52:00;96624.50;;;21.81;100.00
12759;BME280;20944;47.048;15.390;2023-08-01T05:54:29;96630.50;;;22.14;100.00
12759;BME280;20944;47.048;15.390;2023-08-01T05:56:58;96630.06;;;22.38;100.00
12759;BME280;20944;47.048;15.390;2023-08-01T05:59:26;96628.69;;;22.53;100.00
12759;BME280;20944;47.048;15.390;2023-08-01T06:01:55;96625.88;;;22.54;100.00
12759;BME280;20944;47.048;15.390;2023-08-01T06:04:23;96621.94;;;22.39;100.00
12759;BME280;20944;47.048;15.390;2023-08-01T06:06:51;96566.13;;;21.97;100.00
12759;BME280;20944;47.048;15.390;2023-08-01T06:09:20;96615.31;;;22.24;100.00
12759;BME280;20944;47.048;15.390;2023-08-01T06:11:50;96623.47;;;22.22;100.00
12759;BME280;20944;47.048;15.390;2023-08-01T06:14:20;96614.06;;;22.18;100.00
12759;BME280;20944;47.048;15.390;2023-08-01T06:16:48;96607.88;;;22.18;100.00
12759;BME280;20944;47.048;15.390;2023-08-01T06:19:16;96594.66;;;22.06;100.00
12759;BME280;20944;47.048;15.390;2023-08-01T06:21:44;96610.56;;;22.27;100.00
12759;BME280;20944;47.048;15.390;2023-08-01T06:24:12;96592.28;;;22.23;100.00
12759;BME280;20944;47.048;15.390;2023-08-01T06:26:41;96571.06;;;22.12;100.00
12759;BME280;20944;47.048;15.390;2023-08-01T06:29:09;96604.66;;;22.53;100.00
12759;BME280;20944;47.048;15.390;2023-08-01T06:31:39;96611.41;;;22.47;100.00
12759;BME280;20944;47.048;15.390;2023-08-01T06:34:07;96604.50;;;22.35;100.00
12759;BME280;20944;47.048;15.390;2023-08-01T06:36:35;96603.97;;;22.31;100.00
12759;BME280;20944;47.048;15.390;2023-08-01T06:39:04;96601.00;;;22.15;100.00
12759;BME280;20944;47.048;15.390;2023-08-01T06:41:32;96591.25;;;22.04;100.00
12759;BME280;20944;47.048;15.390;2023-08-01T06:44:00;96610.81;;;22.24;100.00
12759;BME280;20944;47.048;15.390;2023-08-01T06:46:29;96589.34;;;22.26;100.00
12759;BME280;20944;47.048;15.390;2023-08-01T06:48:58;96613.78;;;22.41;100.00
12759;BME280;20944;47.048;15.390;2023-08-01T06:51:26;96609.13;;;22.43;100.00
12759;BME280;20944;47.048;15.390;2023-08-01T06:53:55;96616.16;;;22.53;100.00
12759;BME280;20944;47.048;15.390;2023-08-01T06:56:23;96604.66;;;22.43;100.00
12759;BME280;20944;47.048;15.390;2023-08-01T06:58:51;96615.31;;;22.62;100.00
12759;BME280;20944;47.048;15.390;2023-08-01T07:01:19;96563.47;;;22.36;100.00
12759;BME280;20944;47.048;15.390;2023-08-01T07:03:49;96604.47;;;22.83;100.00
12759;BME280;20944;47.048;15.390;2023-08-01T07:06:20;96604.03;;;22.98;100.00
12759;BME280;20944;47.048;15.390;2023-08-01T07:08:48;96598.25;;;23.02;100.00
12759;BME280;20944;47.048;15.390;2023-08-01T07:11:16;96597.69;;;23.08;100.00
12759;BME280;20944;47.048;15.390;2023-08-01T07:13:45;96587.09;;;23.17;100.00
12759;BME280;20944;47.048;15.390;2023-08-01T07:16:14;96587.06;;;23.26;100.00
12759;BME280;20944;47.048;15.390;2023-08-01T07:18:42;96589.34;;;23.49;100.00
12759;BME280;20944;47.048;15.390;2023-08-01T07:21:10;96584.47;;;23.72;100.00
12759;BME280;20944;47.048;15.390;2023-08-01T07:23:40;96584.81;;;24.04;100.00
12759;BME280;20944;47.048;15.390;2023-08-01T07:26:08;96567.00;;;24.13;100.00
12759;BME280;20944;47.048;15.390;2023-08-01T07:28:36;96590.09;;;24.32;100.00
12759;BME280;20944;47.048;15.390;2023-08-01T07:31:06;96587.06;;;24.27;100.00
12759;BME280;20944;47.048;15.390;2023-08-01T07:33:35;96570.28;;;24.25;100.00
12759;BME280;20944;47.048;15.390;2023-08-01T07:36:04;96564.75;;;24.26;100.00
12759;BME280;20944;47.048;15.390;2023-08-01T07:38:32;96575.44;;;24.36;100.00
12759;BME280;20944;47.048;15.390;2023-08-01T07:41:04;96575.81;;;24.41;100.00
12759;BME280;20944;47.048;15.390;2023-08-01T07:43:34;96538.53;;;24.12;100.00
12759;BME280;20944;47.048;15.390;2023-08-01T07:46:02;96574.19;;;24.30;100.00
12759;BME280;20944;47.048;15.390;2023-08-01T07:48:30;96562.25;;;24.25;100.00
12759;BME280;20944;47.048;15.390;2023-08-01T07:50:59;96564.25;;;24.22;100.00
12759;BME280;20944;47.048;15.390;2023-08-01T07:53:27;96558.22;;;24.20;100.00
12759;BME280;20944;47.048;15.390;2023-08-01T07:55:55;96572.28;;;24.22;100.00
12759;BME280;20944;47.048;15.390;2023-08-01T07:58:25;96562.41;;;24.05;100.00
12759;BME280;20944;47.048;15.390;2023-08-01T08:00:53;96526.63;;;23.61;100.00
12759;BME280;20944;47.048;15.390;2023-08-01T08:03:22;96565.00;;;23.97;100.00
12759;BME280;20944;47.048;15.390;2023-08-01T08:05:51;96566.31;;;24.11;100.00
12759;BME280;20944;47.048;15.390;2023-08-01T08:08:19;96554.31;;;24.15;100.00
12759;BME280;20944;47.048;15.390;2023-08-01T08:10:47;96565.63;;;24.27;100.00
12759;BME280;20944;47.048;15.390;2023-08-01T08:13:15;96570.09;;;24.36;100.00
12759;BME280;20944;47.048;15.390;2023-08-01T08:15:45;96553.72;;;24.39;100.00
12759;BME280;20944;47.048;15.390;2023-08-01T08:18:14;96559.44;;;24.44;100.00
12759;BME280;20944;47.048;15.390;2023-08-01T08:20:45;96552.09;;;24.46;100.00
12759;BME280;20944;47.048;15.390;2023-08-01T08:23:14;96557.47;;;24.46;100.00
12759;BME280;20944;47.048;15.390;2023-08-01T08:25:42;96561.66;;;24.48;100.00
12759;BME280;20944;47.048;15.390;2023-08-01T08:28:12;96563.78;;;24.45;100.00
12759;BME280;20944;47.048;15.390;2023-08-01T08:30:41;96560.44;;;24.43;100.00
12759;BME280;20944;47.048;15.390;2023-08-01T08:33:19;96551.25;;;24.45;100.00
12759;BME280;20944;47.048;15.390;2023-08-01T08:35:47;96559.19;;;24.55;100.00
12759;BME280;20944;47.048;15.390;2023-08-01T08:38:17;96558.06;;;24.58;100.00
12759;BME280;20944;47.048;15.390;2023-08-01T08:40:52;96551.75;;;24.67;100.00
12759;BME280;20944;47.048;15.390;2023-08-01T08:43:24;96560.22;;;24.80;100.00
12759;BME280;20944;47.048;15.390;2023-08-01T08:45:57;96555.91;;;24.87;100.00
12759;BME280;20944;47.048;15.390;2023-08-01T08:48:28;96555.09;;;24.95;100.00
12759;BME280;20944;47.048;15.390;2023-08-01T08:51:00;96504.69;;;24.64;100.00
12759;BME280;20944;47.048;15.390;2023-08-01T08:53:28;96539.78;;;24.79;100.00
12759;BME280;20944;47.048;15.390;2023-08-01T08:55:59;96522.38;;;24.83;100.00
12759;BME280;20944;47.048;15.390;2023-08-01T08:58:29;96537.09;;;25.05;100.00
12759;BME280;20944;47.048;15.390;2023-08-01T09:01:00;96540.81;;;25.12;100.00
12759;BME280;20944;47.048;15.390;2023-08-01T09:03:30;96543.88;;;25.17;100.00
12759;BME280;20944;47.048;15.390;2023-08-01T09:06:04;96527.44;;;25.20;100.00
12759;BME280;20944;47.048;15.390;2023-08-01T09:08:35;96554.72;;;25.50;100.00
12759;BME280;20944;47.048;15.390;2023-08-01T09:11:04;96543.41;;;25.72;100.00
12759;BME280;20944;47.048;15.390;2023-08-01T09:13:32;96547.66;;;25.83;100.00
12759;BME280;20944;47.048;15.390;2023-08-01T09:16:02;96549.53;;;25.99;100.00
12759;BME280;20944;47.048;15.390;2023-08-01T09:18:32;96543.03;;;26.09;100.00
12759;BME280;20944;47.048;15.390;2023-08-01T09:21:00;96527.72;;;26.26;100.00
12759;BME280;20944;47.048;15.390;2023-08-01T09:23:30;96528.09;;;26.64;100.00
12759;BME280;20944;47.048;15.390;2023-08-01T09:25:58;96489.44;;;26.65;100.00
12759;BME280;20944;47.048;15.390;2023-08-01T09:28:27;96534.56;;;27.02;100.00
12759;BME280;20944;47.048;15.390;2023-08-01T09:30:55;96529.72;;;27.06;100.00
12759;BME280;20944;47.048;15.390;2023-08-01T09:33:25;96525.66;;;27.02;100.00
12759;BME280;20944;47.048;15.390;2023-08-01T09:35:55;96515.28;;;26.91;100.00
12759;BME280;20944;47.048;15.390;2023-08-01T09:38:23;96526.03;;;26.82;100.00
12759;BME280;20944;47.048;15.390;2023-08-01T09:40:52;96529.94;;;26.72;100.00
12759;BME280;20944;47.048;15.390;2023-08-01T09:43:20;96518.38;;;26.47;100.00
12759;BME280;20944;47.048;15.390;2023-08-01T09:45:50;96531.44;;;26.33;100.00
12759;BME280;20944;47.048;15.390;2023-08-01T09:48:23;96527.41;;;26.13;100.00
12759;BME280;20944;47.048;15.390;2023-08-01T09:50:52;96534.63;;;25.96;100.00
12759;BME280;20944;47.048;15.390;2023-08-01T09:53:22;96524.00;;;25.87;100.00
12759;BME280;20944;47.048;15.390;2023-08-01T09:55:51;96520.13;;;25.81;100.00
12759;BME280;20944;47.048;15.390;2023-08-01T09:58:22;96512.53;;;25.60;100.00
12759;BME280;20944;47.048;15.390;2023-08-01T10:00:52;96510.66;;;25.52;100.00
12759;BME280;20944;47.048;15.390;2023-08-01T10:03:20;96504.38;;;25.36;100.00
12759;BME280;20944;47.048;15.390;2023-08-01T10:05:49;96485.34;;;25.13;100.00
12759;BME280;20944;47.048;15.390;2023-08-01T10:08:22;96488.38;;;25.10;100.00
12759;BME280;20944;47.048;15.390;2023-08-01T10:10:52;96487.53;;;25.09;100.00
12759;BME280;20944;47.048;15.390;2023-08-01T10:13:24;96474.69;;;24.95;100.00
12759;BME280;20944;47.048;15.390;2023-08-01T10:15:52;96473.53;;;24.97;100.00
12759;BME280;20944;47.048;15.390;2023-08-01T10:18:22;96471.34;;;25.01;100.00
12759;BME280;20944;47.048;15.390;2023-08-01T10:20:51;96470.84;;;24.97;100.00
12759;BME280;20944;47.048;15.390;2023-08-01T10:23:19;96464.56;;;24.81;100.00
12759;BME280;20944;47.048;15.390;2023-08-01T10:25:49;96475.25;;;24.72;100.00
12759;BME280;20944;47.048;15.390;2023-08-01T10:28:18;96461.13;;;24.62;100.00
12759;BME280;20944;47.048;15.390;2023-08-01T10:30:46;96438.41;;;24.40;100.00
12759;BME280;20944;47.048;15.390;2023-08-01T10:33:15;96408.16;;;24.30;100.00
12759;BME280;20944;47.048;15.390;2023-08-01T10:35:44;96475.34;;;24.63;100.00
12759;BME280;20944;47.048;15.390;2023-08-01T10:38:12;96474.63;;;24.53;100.00
12759;BME280;20944;47.048;15.390;2023-08-01T10:40:42;96472.59;;;24.46;100.00
12759;BME280;20944;47.048;15.390;2023-08-01T10:43:22;96474.09;;;24.49;100.00
12759;BME280;20944;47.048;15.390;2023-08-01T10:46:00;96438.56;;;24.21;100.00
12759;BME280;20944;47.048;15.390;2023-08-01T10:48:29;96449.78;;;24.25;100.00
12759;BME280;20944;47.048;15.390;2023-08-01T10:50:57;96449.41;;;24.19;100.00
12759;BME280;20944;47.048;15.390;2023-08-01T10:53:26;96375.75;;;23.63;100.00
12759;BME280;20944;47.048;15.390;2023-08-01T10:55:54;96460.69;;;24.05;100.00
12759;BME280;20944;47.048;15.390;2023-08-01T10:58:28;96435.56;;;23.80;100.00
12759;BME280;20944;47.048;15.390;2023-08-01T11:00:59;96441.38;;;23.76;100.00
12759;BME280;20944;47.048;15.390;2023-08-01T11:03:34;96432.50;;;23.57;100.00
12759;BME280;20944;47.048;15.390;2023-08-01T11:06:03;96445.59;;;23.51;100.00
12759;BME280;20944;47.048;15.390;2023-08-01T11:08:36;96429.88;;;23.48;100.00
12759;BME280;20944;47.048;15.390;2023-08-01T11:11:05;96438.25;;;23.62;100.00
12759;BME280;20944;47.048;15.390;2023-08-01T11:13:36;96411.47;;;23.45;100.00
12759;BME280;20944;47.048;15.390;2023-08-01T11:16:05;96433.47;;;23.56;100.00
12759;BME280;20944;47.048;15.390;2023-08-01T11:18:41;96438.69;;;23.58;100.00
12759;BME280;20944;47.048;15.390;2023-08-01T11:21:10;96422.53;;;23.50;100.00
12759;BME280;20944;47.048;15.390;2023-08-01T11:23:38;96397.25;;;23.26;100.00
12759;BME280;20944;47.048;15.390;2023-08-01T11:26:07;96427.53;;;23.62;100.00
12759;BME280;20944;47.048;15.390;2023-08-01T11:28:38;96399.84;;;23.54;100.00
12759;BME280;20944;47.048;15.390;2023-08-01T11:31:12;96414.88;;;23.82;100.00
12759;BME280;20944;47.048;15.390;2023-08-01T11:33:41;96407.06;;;23.89;100.00
12759;BME280;20944;47.048;15.390;2023-08-01T11:36:09;96390.13;;;23.88;100.00
12759;BME280;20944;47.048;15.390;2023-08-01T11:38:38;96395.09;;;24.01;100.00
12759;BME280;20944;47.048;15.390;2023-08-01T11:41:07;96402.34;;;24.09;100.00
12759;BME280;20944;47.048;15.390;2023-08-01T11:43:40;96390.84;;;23.90;100.00
12759;BME280;20944;47.048;15.390;2023-08-01T11:46:09;96379.91;;;23.84;100.00
12759;BME280;20944;47.048;15.390;2023-08-01T11:48:38;96400.47;;;24.01;100.00
12759;BME280;20944;47.048;15.390;2023-08-01T11:51:06;96403.13;;;24.01;100.00
12759;BME280;20944;47.048;15.390;2023-08-01T11:53:34;96354.47;;;23.62;100.00
12759;BME280;20944;47.048;15.390;2023-08-01T11:56:06;96405.28;;;23.98;100.00
12759;BME280;20944;47.048;15.390;2023-08-01T11:58:35;96387.00;;;23.93;100.00
12759;BME280;20944;47.048;15.390;2023-08-01T12:01:07;96396.41;;;23.97;100.00
12759;BME280;20944;47.048;15.390;2023-08-01T12:03:43;96401.63;;;24.07;100.00
12759;BME280;20944;47.048;15.390;2023-08-01T12:06:12;96345.38;;;23.55;100.00
12759;BME280;20944;47.048;15.390;2023-08-01T12:08:41;96396.25;;;23.81;100.00
12759;BME280;20944;47.048;15.390;2023-08-01T12:11:20;96389.25;;;23.80;100.00
12759;BME280;20944;47.048;15.390;2023-08-01T12:14:01;96399.25;;;23.78;100.00
12759;BME280;20944;47.048;15.390;2023-08-01T12:16:31;96395.19;;;23.56;100.00
12759;BME280;20944;47.048;15.390;2023-08-01T12:18:59;96387.16;;;23.38;100.00
12759;BME280;20944;47.048;15.390;2023-08-01T12:21:29;96368.59;;;23.19;100.00
12759;BME280;20944;47.048;15.390;2023-08-01T12:23:57;96367.72;;;23.00;100.00
12759;BME280;20944;47.048;15.390;2023-08-01T12:26:26;96393.13;;;23.14;100.00
12759;BME280;20944;47.048;15.390;2023-08-01T12:28:54;96378.75;;;22.97;100.00
12759;BME280;20944;47.048;15.390;2023-08-01T12:31:23;96399.66;;;23.02;100.00
12759;BME280;20944;47.048;15.390;2023-08-01T12:33:53;96366.31;;;22.51;100.00
12759;BME280;20944;47.048;15.390;2023-08-01T12:36:21;96404.28;;;22.72;100.00
12759;BME280;20944;47.048;15.390;2023-08-01T12:38:50;96417.41;;;22.66;100.00
12759;BME280;20944;47.048;15.390;2023-08-01T12:41:18;96419.56;;;22.52;100.00
12759;BME280;20944;47.048;15.390;2023-08-01T12:43:46;96423.94;;;22.44;100.00
12759;BME280;20944;47.048;15.390;2023-08-01T12:46:14;96436.22;;;22.27;100.00
12759;BME280;20944;47.048;15.390;2023-08-01T12:48:43;96437.34;;;22.05;100.00
12759;BME280;20944;47.048;15.390;2023-08-01T12:51:13;96459.00;;;21.73;100.00